Flight Track Log - Related Links

Times and Time Zones

All times are in EDT time to prevent confusion due to time zone crossing. See the UAL495 flight status page for this flight to view local times or setup timezone preferences in your user account.

Time Position Orientation Groundspeed Altitude Reporting Facility
EDT Latitude Longitude Course Direction KTS MPH feet Rate Location/Type
Sun 12:53:48 PM 39.8833 -104.5500 85° East 215 247 7,500  Level Denver TRACON
Sun 12:54:42 PM 39.8833 -104.4667 90° East 268 308 9,600 2,416 Climbing Denver TRACON
Sun 12:55:00 PM 39.8667 -104.2122 90° East  Level FlightAware Approximate
Sun 12:55:05 PM 39.8747 -104.4283 106° East 271 312 10,600  Level Denver Center
Sun 12:56:00 PM 39.8667 -104.0603 90° East  Level FlightAware Approximate
Sun 12:56:07 PM 39.8733 -104.3114 91° East 325 374 12,100  Level Denver Center
Sun 12:57:00 PM 39.8667 -103.9084 90° East  Level FlightAware Approximate
Sun 12:58:00 PM 39.8770 -103.7586 72° East  Level FlightAware Approximate
Sun 12:58:24 PM 39.8789 -103.9992 89° East 382 440 17,900  Level Denver Center
Sun 12:59:00 PM 39.8887 -103.6083 85° East  Level FlightAware Approximate
Sun 12:59:26 PM 39.8881 -103.8603 85° East 390 449 20,100  Level Denver Center
Sun 01:00:28 PM 39.8994 -103.7072 84° East 403 464 22,100 1,790 Climbing Denver Center
Sun 01:01:30 PM 39.9114 -103.5564 84° East 412 474 23,800 1,645 Climbing Denver Center
Sun 01:02:32 PM 39.9211 -103.3961 85° East 437 503 25,500 1,597 Climbing Denver Center
Sun 01:03:34 PM 39.9322 -103.2314 85° East 450 518 27,100 1,403 Climbing Denver Center
Sun 01:04:36 PM 39.9436 -103.0614 85° East 465 535 28,400 1,258 Climbing Denver Center
Sun 01:05:38 PM 39.9550 -102.8872 85° East 476 548 29,700 1,355 Climbing Denver Center
Sun 01:06:40 PM 39.9686 -102.6911 85° East 487 560 31,200 1,258 Climbing Denver Center
Sun 01:07:42 PM 39.9781 -102.5203 86° East 493 567 32,300 1,113 Climbing Denver Center
Sun 01:08:44 PM 39.9897 -102.3178 86° East 502 578 33,500 1,113 Climbing Denver Center
Sun 01:09:46 PM 40.0019 -102.1425 85° East 510 587 34,600 1,258 Climbing Denver Center
Sun 01:10:48 PM 40.0358 -101.9450 77° East 499 574 36,100 1,161 Climbing Denver Center
Sun 01:11:50 PM 40.0639 -101.7783 78° East 494 568 37,000 435 Climbing Denver Center
Sun 01:12:52 PM 40.0889 -101.5850 80° East 489 563 37,000  Level Denver Center
Sun 01:13:54 PM 40.0975 -101.4178 86° East 486 559 37,000  Level Denver Center
Sun 01:14:56 PM 40.1072 -101.2194 86° East 491 565 37,000  Level Denver Center
Sun 01:15:58 PM 40.1142 -101.0506 87° East 490 564 37,000  Level Denver Center
Sun 01:17:00 PM 40.1225 -100.8519 87° East 492 566 37,000  Level Denver Center
Sun 01:18:02 PM 40.1297 -100.6842 87° East 488 562 37,000  Level Denver Center
Sun 01:19:04 PM 40.1375 -100.4872 87° East 489 563 37,000  Level Denver Center
Sun 01:20:06 PM 40.1436 -100.3189 87° East 488 562 37,000  Level Denver Center
Sun 01:21:09 PM 40.1503 -100.1231 87° East 487 560 37,000  Level Denver Center
Sun 01:22:11 PM 40.1556 -99.9567 88° East 482 555 37,000  Level Denver Center
Sun 01:23:13 PM 40.1619 -99.7583 88° East 483 556 37,000  Level Denver Center
Sun 01:24:15 PM 40.1672 -99.5836 88° East 483 556 37,000  Level Denver Center
Sun 01:25:17 PM 40.1725 -99.4108 88° East 480 552 37,000  Level Denver Center
Sun 01:26:19 PM 40.1775 -99.2394 88° East 476 548 37,000  Level Denver Center
Sun 01:27:21 PM 40.1817 -99.0689 88° East 472 543 37,000  Level Denver Center
Sun 01:28:29 PM 40.1869 -98.8658 88° East 470 541 37,000  Level Minneapolis Center
Sun 01:29:31 PM 40.1914 -98.6983 88° East 466 536 37,000  Level Minneapolis Center
Sun 01:30:33 PM 40.1953 -98.5319 88° East 462 532 37,000  Level Minneapolis Center
Sun 01:31:35 PM 40.1986 -98.3322 89° East 461 531 37,000  Level Minneapolis Center
Sun 01:32:37 PM 40.2014 -98.1653 89° East 460 529 37,000  Level Minneapolis Center
Sun 01:33:39 PM 40.2050 -97.9994 88° East 458 527 37,000  Level Minneapolis Center
Sun 01:34:41 PM 40.2072 -97.8317 89° East 461 531 37,000  Level Minneapolis Center
Sun 01:35:43 PM 40.2100 -97.6639 89° East 463 533 37,000  Level Minneapolis Center
Sun 01:36:45 PM 40.2122 -97.4950 89° East 464 534 37,000  Level Minneapolis Center
Sun 01:37:47 PM 40.2147 -97.2961 89° East 464 534 37,000  Level Minneapolis Center
Sun 01:38:49 PM 40.2161 -97.1289 89° East 462 532 37,000  Level Minneapolis Center
Sun 01:39:51 PM 40.2181 -96.9631 89° East 459 528 37,000  Level Minneapolis Center
Sun 01:40:53 PM 40.2181 -96.7969 90° East 458 527 37,000  Level Minneapolis Center
Sun 01:41:54 PM 40.2194 -96.6344 89° East 452 520 37,000  Level Minneapolis Center
Sun 01:42:56 PM 40.2206 -96.4725 89° East 449 517 37,000  Level Minneapolis Center
Sun 01:43:58 PM 40.2206 -96.2778 90° East 447 514 37,000  Level Minneapolis Center
Sun 01:45:00 PM 40.2211 -96.1178 90° East 445 512 37,000  Level Minneapolis Center
Sun 01:46:02 PM 40.2208 -95.9567 90° East 445 512 37,000  Level Minneapolis Center
Sun 01:47:04 PM 40.2214 -95.7942 90° East 449 517 37,000  Level Minneapolis Center
Sun 01:48:06 PM 40.2214 -95.6344 90° East 443 510 37,000  Level Minneapolis Center
Sun 01:49:08 PM 40.2197 -95.4758 91° East 440 506 37,000  Level Minneapolis Center
Sun 01:50:10 PM 40.2200 -95.2867 90° East 437 503 37,000  Level Minneapolis Center
Sun 01:51:12 PM 40.2186 -95.1281 91° East 437 503 37,000  Level Minneapolis Center
Sun 01:52:14 PM 40.2169 -94.9686 91° East 439 505 37,000  Level Minneapolis Center
Sun 01:53:16 PM 40.2156 -94.8097 91° East 439 505 37,000  Level Minneapolis Center
Sun 01:54:18 PM 40.2136 -94.6517 91° East 437 503 37,000  Level Minneapolis Center
Sun 01:55:20 PM 40.1814 -94.4836 104° East 432 497 37,000  Level Minneapolis Center
Sun 01:56:21 PM 40.1472 -94.3358 107° East 429 494 37,000  Level Minneapolis Center
Sun 01:56:44 PM 40.1300 -94.2650 108° East 428 493 37,000  Level Kansas City Center
Sun 01:57:46 PM 40.0992 -94.1250 106° East 423 487 37,000  Level Kansas City Center
Sun 01:58:48 PM 40.0658 -93.9853 107° East 425 489 37,000  Level Kansas City Center
Sun 01:59:50 PM 40.0336 -93.8389 106° East 424 488 37,000 194 Level Kansas City Center
Sun 02:00:52 PM 39.9961 -93.6653 106° East 421 484 37,400 435 Climbing Kansas City Center
Sun 02:01:54 PM 39.9653 -93.5225 106° East 417 480 37,900 290 Climbing Kansas City Center
Sun 02:02:56 PM 39.9453 -93.3697 100° East 431 496 38,000 48 Climbing Kansas City Center
Sun 02:03:58 PM 39.9486 -93.2192 88° East 425 489 38,000 194 Level Kansas City Center
Sun 02:05:00 PM 39.9497 -93.0333 89° East 431 496 38,400 484 Climbing Kansas City Center
Sun 02:06:02 PM 39.9517 -92.8789 89° East 434 499 39,000 290 Climbing Kansas City Center
Sun 02:07:04 PM 39.9533 -92.7253 89° East 432 497 39,000  Level Kansas City Center
Sun 02:08:06 PM 39.9539 -92.5689 90° East 438 504 39,000  Level Kansas City Center
Sun 02:09:08 PM 39.9544 -92.4144 90° East 436 502 39,000  Level Kansas City Center
Sun 02:10:10 PM 39.9547 -92.2269 90° East 437 503 39,000  Level Kansas City Center
Sun 02:11:12 PM 39.9550 -92.0703 90° East 438 504 39,000  Level Kansas City Center
Sun 02:12:14 PM 39.9539 -91.9139 90° East 438 504 39,000  Level Kansas City Center
Sun 02:13:16 PM 39.9517 -91.7539 91° East 442 509 39,000  Level Kansas City Center
Sun 02:14:18 PM 39.9550 -91.5628 89° East 443 510 39,000  Level Kansas City Center
Sun 02:15:20 PM 39.9536 -91.4047 91° East 442 509 39,000  Level Kansas City Center
Sun 02:16:22 PM 39.9511 -91.2494 91° East 436 502 39,000  Level Kansas City Center
Sun 02:17:24 PM 39.9508 -91.0972 90° East 428 493 39,000  Level Kansas City Center
Sun 02:18:26 PM 39.9489 -90.9417 91° East 419 482 39,000  Level Kansas City Center
Sun 02:19:28 PM 39.9475 -90.7931 91° East 414 476 39,000  Level Kansas City Center
Sun 02:20:30 PM 39.9453 -90.6147 91° East 413 475 39,000  Level Kansas City Center
Sun 02:21:32 PM 39.9436 -90.4642 91° East 415 478 39,000  Level Kansas City Center
Sun 02:22:34 PM 39.9411 -90.3144 91° East 416 479 39,000  Level Kansas City Center
Sun 02:23:36 PM 39.9381 -90.1669 92° East 413 475 39,000  Level Kansas City Center
Sun 02:24:38 PM 39.9361 -90.0181 91° East 413 475 39,000  Level Kansas City Center
Sun 02:25:40 PM 39.9331 -89.8697 91° East 412 474 39,000  Level Kansas City Center
Sun 02:26:42 PM 39.9300 -89.6936 91° East 409 471 39,000  Level Kansas City Center
Sun 02:27:44 PM 39.9272 -89.5469 91° East 407 468 39,000  Level Kansas City Center
Sun 02:28:46 PM 39.9239 -89.4022 92° East 405 466 39,000  Level Kansas City Center
Sun 02:29:48 PM 39.9211 -89.2561 91° East 404 465 39,000  Level Kansas City Center
Sun 02:30:50 PM 39.9178 -89.1089 92° East 407 468 39,000  Level Kansas City Center
Sun 02:31:52 PM 39.9136 -88.9614 92° East 407 468 39,000  Level Kansas City Center
Sun 02:32:54 PM 39.9089 -88.7850 92° East 408 470 39,000  Level Kansas City Center
Sun 02:33:56 PM 39.9042 -88.6356 92° East 412 474 39,000  Level Kansas City Center
Sun 02:34:58 PM 39.9011 -88.4869 91° East 412 474 39,000  Level Kansas City Center
Sun 02:36:00 PM 39.8972 -88.3331 92° East 422 486 39,000  Level Kansas City Center
Sun 02:37:02 PM 39.8922 -88.1669 92° East 422 486 39,000  Level Kansas City Center
Sun 02:38:04 PM 39.8853 -88.0139 93° East 422 486 39,000  Level Kansas City Center
Sun 02:39:06 PM 39.8806 -87.8567 92° East 428 493 39,000  Level Kansas City Center
Sun 02:40:08 PM 39.8739 -87.7022 93° East 427 491 39,000  Level Kansas City Center
Sun 02:41:11 PM 39.8653 -87.5356 94° East 432 497 39,000 -96 Level Indianapolis Center
Sun 02:42:13 PM 39.8608 -87.3783 92° East 435 501 38,800 -435 Descending Indianapolis Center
Sun 02:43:15 PM 39.8544 -87.2250 93° East 427 491 38,100 -871 Descending Indianapolis Center
Sun 02:44:17 PM 39.8461 -87.0506 94° East 407 468 37,000 -532 Descending Indianapolis Center
Sun 02:45:19 PM 39.8406 -86.9097 93° East 394 453 37,000  Level Indianapolis Center
Sun 02:46:21 PM 39.8344 -86.7697 93° East 389 448 37,000  Level Indianapolis Center
Sun 02:47:23 PM 39.8275 -86.6278 94° East 394 453 37,000  Level Indianapolis Center
Sun 02:48:25 PM 39.8206 -86.4833 94° East 399 459 37,000  Level Indianapolis Center
Sun 02:49:27 PM 39.8167 -86.3414 92° East 400 460 37,000  Level Indianapolis Center
Sun 02:50:29 PM 39.8375 -86.1628 81° East 412 474 37,000  Level Indianapolis Center
Sun 02:52:00 PM 39.8594 -85.9351 83° East  Level FlightAware Approximate
Sun 02:52:32 PM 39.8706 -85.8550 83° East 417 480 37,000  Level Indianapolis Center
Sun 02:53:34 PM 39.8861 -85.7067 82° East 415 478 37,000  Level Indianapolis Center
Sun 02:54:37 PM 39.9014 -85.5586 82° East 415 478 37,000  Level Indianapolis Center
Sun 02:55:39 PM 39.9161 -85.4094 83° East 416 479 37,000  Level Indianapolis Center
Sun 02:56:41 PM 39.9314 -85.2611 82° East 415 478 37,000  Level Indianapolis Center
Sun 02:57:43 PM 39.9389 -85.1131 86° East 412 474 37,000  Level Indianapolis Center
Sun 02:58:45 PM 39.9425 -84.9347 88° East 410 472 37,000  Level Indianapolis Center
Sun 02:59:47 PM 39.9478 -84.7772 87° East 415 478 37,000 -48 Level Indianapolis Center
Sun 03:00:49 PM 39.9522 -84.6272 88° East 413 475 36,900 -48 Descending Indianapolis Center
Sun 03:01:51 PM 39.9572 -84.4747 88° East 417 480 36,900  Level Indianapolis Center
Sun 03:02:53 PM 39.9617 -84.3239 88° East 415 478 36,900  Level Indianapolis Center
Sun 03:03:55 PM 39.9672 -84.1708 87° East 419 482 36,900  Level Indianapolis Center
Sun 03:04:57 PM 39.9717 -84.0183 88° East 418 481 36,900  Level Indianapolis Center
Sun 03:05:59 PM 39.9756 -83.8647 88° East 419 482 36,900 48 Level Indianapolis Center
Sun 03:07:01 PM 39.9797 -83.7108 88° East 419 482 37,000  Climbing Indianapolis Center
Sun 03:08:03 PM 39.9839 -83.5556 88° East 419 482 36,900 -48 Descending Indianapolis Center
Sun 03:09:05 PM 39.9886 -83.3978 88° East 423 487 36,900 48 Level Indianapolis Center
Sun 03:10:07 PM 39.9917 -83.2142 89° East 425 489 37,000  Climbing Indianapolis Center
Sun 03:11:09 PM 39.9947 -83.0578 88° East 427 491 36,900  Descending Indianapolis Center
Sun 03:12:11 PM 39.9978 -82.8986 89° East 432 497 37,000 48 Climbing Indianapolis Center
Sun 03:13:13 PM 40.0000 -82.7367 89° East 441 507 37,000 -48 Level Indianapolis Center
Sun 03:14:15 PM 40.0033 -82.5739 88° East 445 512 36,900 -48 Descending Indianapolis Center
Sun 03:15:18 PM 40.0056 -82.4106 89° East 447 514 36,900  Level Indianapolis Center
Sun 03:16:20 PM 40.0081 -82.2478 89° East 445 512 36,900 48 Level Indianapolis Center
Sun 03:17:22 PM 40.0106 -82.0839 89° East 448 516 37,000  Climbing Indianapolis Center
Sun 03:18:24 PM 40.0125 -81.8944 89° East 444 511 36,900  Descending Indianapolis Center
Sun 03:19:26 PM 40.0136 -81.7297 89° East 447 514 37,000 48 Climbing Indianapolis Center
Sun 03:20:28 PM 40.0142 -81.5664 90° East 448 516 37,000  Level Indianapolis Center
Sun 03:21:30 PM 40.0147 -81.4028 90° East 448 516 37,000  Level Indianapolis Center
Sun 03:22:32 PM 40.0158 -81.2403 89° East 447 514 37,000  Level Indianapolis Center
Sun 03:23:34 PM 40.0167 -81.0792 90° East 444 511 37,000  Level Indianapolis Center
Sun 03:24:12 PM 40.0206 -80.9733 87° East 437 503 37,000  Level Cleveland Center
Sun 03:25:12 PM 40.0128 -80.8136 94° East 437 503 37,000  Level Cleveland Center
Sun 03:26:12 PM 39.9567 -80.6778 118° Southeast 432 497 37,000  Level Cleveland Center
Sun 03:27:12 PM 39.8919 -80.5453 122° Southeast 421 484 37,000 -350 Level Cleveland Center
Sun 03:28:12 PM 39.8272 -80.4072 121° Southeast 433 498 36,300 -850 Descending Cleveland Center
Sun 03:29:12 PM 39.7417 -80.3050 137° Southeast 433 498 35,300 -950 Descending Cleveland Center
Sun 03:30:12 PM 39.6539 -80.2056 139° Southeast 419 482 34,400 -1,119 Descending Cleveland Center
Sun 03:31:26 PM 39.5531 -80.0783 136° Southeast 417 480 32,800 -1,478 Descending Washington Center
Sun 03:32:26 PM 39.5253 -79.9261 103° East 412 474 31,100 -2,000 Descending Washington Center
Sun 03:33:26 PM 39.5164 -79.7642 94° East 412 474 28,800 -2,033 Descending Washington Center
Sun 03:34:27 PM 39.5069 -79.6128 95° East 422 486 27,000 -1,388 Descending Washington Center
Sun 03:35:27 PM 39.4931 -79.4694 97° East 422 486 26,000 -1,017 Descending Washington Center
Sun 03:36:25 PM 39.4642 -79.3256 105° East 410 472 25,000 -1,017 Descending Washington Center
Sun 03:37:25 PM 39.4353 -79.1817 105° East 405 466 24,000 -1,488 Descending Washington Center
Sun 03:38:26 PM 39.4100 -79.0433 103° East 405 466 22,000 -1,918 Descending Washington Center
Sun 03:39:27 PM 39.3867 -78.9106 103° East 390 449 20,100 -2,017 Descending Washington Center
Sun 03:40:25 PM 39.3631 -78.7833 103° East 372 428 18,000 -1,916 Descending Washington Center
Sun 03:41:26 PM 39.3433 -78.6617 102° East 362 417 16,300 -1,686 Descending Washington Center
Sun 03:42:26 PM 39.3192 -78.5428 105° East 350 403 14,600 -1,686 Descending Washington Center
Sun 03:43:27 PM 39.2989 -78.4292 103° East 337 388 12,900 -1,587 Descending Washington Center
Sun 03:44:27 PM 39.2931 -78.3217 94° East 317 365 11,400 -1,220 Descending Washington Center
Sun 03:45:25 PM 39.2956 -78.2117 88° East 311 358 10,500 -915 Descending Washington Center
Sun 03:46:25 PM 39.2958 -78.1019 90° East 292 336 9,600 -744 Descending Washington Center
Sun 03:47:26 PM 39.2956 -78.0081 90° East 277 319 9,000 -298 Descending Washington Center
Sun 03:48:26 PM 39.2956 -77.9086 90° East 270 311 9,000 -694 Level Washington Center
Sun 03:49:27 PM 39.2953 -77.8147 90° East 270 311 7,600 -1,008 Descending Washington Center
Sun 03:50:25 PM 39.2928 -77.7208 92° East 265 305 7,000 -820 Descending Washington Center
Sun 03:52:30 PM 39.2167 -77.5667 122° Southeast 249 287 5,100 -804 Descending Potomac TRACON
Sun 03:53:24 PM 39.1833 -77.5167 131° Southeast 228 262 4,600 -700 Descending Potomac TRACON
Sun 03:54:30 PM 39.1167 -77.4667 150° Southeast 195 224 3,700 -893 Descending Potomac TRACON
Sun 03:55:25 PM 39.0833 -77.4500 159° South 183 211 2,800 -982 Descending Potomac TRACON

Login

Don't have an account? Register now (free) for customized features, flight alerts, and more!